Time;durP1;ratioP1;P1;durP2;ratioP2;P2;SDS_P1;SDS_P2;PMS_P1;PMS_P2;Temp;Humidity;BMP_temperature;BMP_pressure;BME280_temperature;BME280_humidity;BME280_pressure;Samples;Min_cycle;Max_cycle;Signal;HPM_P1;HPM_P2
2022/09/29 00:01:10;;;;;;;7.70;3.60;;;;;;;;;;5135141;27;20019;-75
2022/09/29 00:03:56;;;;;;;6.75;3.30;;;;;;;;;;5134920;27;20023;-75
2022/09/29 00:06:41;;;;;;;7.55;3.92;;;;;;;;;;5135463;27;20015;-75
2022/09/29 00:09:27;;;;;;;5.65;3.25;;;;;;;;;;5135665;27;20015;-75
2022/09/29 00:12:12;;;;;;;6.43;3.72;;;;;;;;;;5135722;27;20026;-74
2022/09/29 00:14:58;;;;;;;7.95;3.70;;;;;;;;;;5135653;27;20506;-74
2022/09/29 00:17:43;;;;;;;8.20;3.47;;;;;;;;;;5136470;27;20382;-74
2022/09/29 00:20:29;;;;;;;7.82;3.97;;;;;;;;;;5135907;27;20023;-74
2022/09/29 00:23:15;;;;;;;8.50;3.40;;;;;;;;;;5134630;27;20460;-74
2022/09/29 00:26:02;;;;;;;8.38;3.40;;;;;;;;;;5136479;27;20019;-74
2022/09/29 00:28:52;;;;;;;7.15;3.30;;;;;;;;;;5135106;27;20011;-74
2022/09/29 00:31:38;;;;;;;5.53;3.20;;;;;;;;;;5135817;27;20141;-75
2022/09/29 00:34:23;;;;;;;6.43;3.15;;;;;;;;;;5135846;27;20024;-74
2022/09/29 00:37:09;;;;;;;5.80;2.85;;;;;;;;;;5136911;27;20131;-75
2022/09/29 00:39:55;;;;;;;5.38;2.83;;;;;;;;;;5135854;27;20020;-74
2022/09/29 00:42:41;;;;;;;9.32;3.03;;;;;;;;;;5135965;27;20023;-75
2022/09/29 00:45:27;;;;;;;4.88;2.65;;;;;;;;;;5136293;28;20027;-74
2022/09/29 00:48:16;;;;;;;4.03;2.42;;;;;;;;;;5135500;28;20416;-74
2022/09/29 00:51:02;;;;;;;5.47;2.40;;;;;;;;;;5135508;28;20103;-75
2022/09/29 00:53:48;;;;;;;4.20;2.45;;;;;;;;;;5134267;28;20184;-74
2022/09/29 00:56:35;;;;;;;6.38;2.60;;;;;;;;;;5136830;28;20027;-75
2022/09/29 00:59:27;;;;;;;4.45;2.33;;;;;;;;;;5135953;28;20027;-74
2022/09/29 01:02:14;;;;;;;4.53;2.38;;;;;;;;;;5135687;28;20065;-75
2022/09/29 01:05:01;;;;;;;4.47;2.40;;;;;;;;;;5135316;28;20110;-74
2022/09/29 01:07:46;;;;;;;8.05;2.65;;;;;;;;;;5136820;28;20023;-75
2022/09/29 01:10:33;;;;;;;7.30;2.90;;;;;;;;;;5135745;28;20026;-75
2022/09/29 01:13:19;;;;;;;5.22;2.50;;;;;;;;;;5135490;28;20078;-76
2022/09/29 01:16:04;;;;;;;7.97;2.60;;;;;;;;;;5136348;28;20015;-75
2022/09/29 01:18:51;;;;;;;6.18;2.55;;;;;;;;;;5136644;28;20012;-75
2022/09/29 01:21:37;;;;;;;3.90;2.35;;;;;;;;;;5136247;28;20047;-76
2022/09/29 01:24:45;;;;;;;6.38;3.08;;;;;;;;;;5135713;28;20042;-73
2022/09/29 01:27:56;;;;;;;6.45;2.70;;;;;;;;;;5135962;28;20019;-75
2022/09/29 01:30:59;;;;;;;4.55;2.50;;;;;;;;;;5135128;28;20011;-75
2022/09/29 01:34:04;;;;;;;5.50;2.60;;;;;;;;;;5134946;28;20022;-75
2022/09/29 01:36:55;;;;;;;4.90;2.70;;;;;;;;;;5137339;28;20027;-76
2022/09/29 01:39:46;;;;;;;6.22;2.80;;;;;;;;;;5134620;28;20031;-75
2022/09/29 01:42:34;;;;;;;4.78;2.40;;;;;;;;;;5135043;28;20078;-75
2022/09/29 01:45:24;;;;;;;6.82;2.55;;;;;;;;;;5135129;28;20030;-75
2022/09/29 01:48:16;;;;;;;3.35;2.28;;;;;;;;;;5133984;28;20038;-75
2022/09/29 01:51:11;;;;;;;5.90;2.55;;;;;;;;;;5134801;27;20019;-74
2022/09/29 01:54:01;;;;;;;4.57;2.70;;;;;;;;;;5141624;27;20117;-75
2022/09/29 01:56:50;;;;;;;6.80;2.83;;;;;;;;;;5139259;27;20023;-76
2022/09/29 01:59:45;;;;;;;5.10;2.70;;;;;;;;;;5138906;27;20051;-76
2022/09/29 02:02:37;;;;;;;5.68;2.80;;;;;;;;;;5142493;27;20344;-75
2022/09/29 02:05:30;;;;;;;6.75;2.63;;;;;;;;;;5137327;27;20454;-75
2022/09/29 02:08:21;;;;;;;5.38;2.75;;;;;;;;;;5138327;27;20015;-75
2022/09/29 02:11:15;;;;;;;6.53;2.83;;;;;;;;;;5138528;27;20050;-76
2022/09/29 02:14:11;;;;;;;6.88;3.05;;;;;;;;;;5138277;27;20102;-76
2022/09/29 02:17:01;;;;;;;8.70;2.92;;;;;;;;;;5138673;27;20027;-77
2022/09/29 02:19:50;;;;;;;6.88;2.55;;;;;;;;;;5137752;27;20019;-75
2022/09/29 02:22:35;;;;;;;7.82;2.90;;;;;;;;;;5139007;27;20098;-75
2022/09/29 02:25:21;;;;;;;4.85;2.85;;;;;;;;;;5138446;27;20389;-75
2022/09/29 02:28:07;;;;;;;4.68;2.80;;;;;;;;;;5138046;27;20054;-76
2022/09/29 02:30:53;;;;;;;8.15;3.40;;;;;;;;;;5139313;27;20094;-75
2022/09/29 02:33:38;;;;;;;5.65;3.13;;;;;;;;;;5138095;27;20034;-75
2022/09/29 02:36:41;;;;;;;7.97;3.08;;;;;;;;;;5137307;27;20023;-75
2022/09/29 02:39:26;;;;;;;10.32;3.30;;;;;;;;;;5138703;27;20432;-77
2022/09/29 02:42:13;;;;;;;5.63;3.08;;;;;;;;;;5138013;27;20117;-76
2022/09/29 02:45:20;;;;;;;8.00;3.40;;;;;;;;;;5138228;27;20444;-74
2022/09/29 02:48:05;;;;;;;5.43;3.65;;;;;;;;;;5137606;27;20451;-75
2022/09/29 02:50:54;;;;;;;8.35;3.40;;;;;;;;;;5137737;27;20416;-75
2022/09/29 02:53:39;;;;;;;7.38;4.20;;;;;;;;;;5137388;27;20048;-74
2022/09/29 02:56:28;;;;;;;6.20;3.78;;;;;;;;;;5122722;27;20079;-76
2022/09/29 02:59:30;;;;;;;8.38;3.90;;;;;;;;;;5137289;27;20391;-75
2022/09/29 03:02:21;;;;;;;8.93;4.65;;;;;;;;;;5136621;27;20042;-76
2022/09/29 03:05:09;;;;;;;6.53;4.20;;;;;;;;;;5137198;27;20023;-75
2022/09/29 03:07:54;;;;;;;11.73;4.65;;;;;;;;;;5124608;27;20042;-76
2022/09/29 03:10:40;;;;;;;8.35;4.07;;;;;;;;;;5123786;27;20054;-75
2022/09/29 03:13:25;;;;;;;8.45;3.75;;;;;;;;;;5136411;27;20023;-75
2022/09/29 03:16:11;;;;;;;6.53;3.50;;;;;;;;;;5123538;27;20030;-75
2022/09/29 03:18:57;;;;;;;5.85;3.35;;;;;;;;;;5123284;27;20178;-75
2022/09/29 03:21:42;;;;;;;4.85;3.25;;;;;;;;;;5137005;27;20011;-75
2022/09/29 03:24:28;;;;;;;8.35;3.97;;;;;;;;;;5122783;27;20099;-75
2022/09/29 03:27:14;;;;;;;13.90;4.03;;;;;;;;;;5136745;27;20015;-74
2022/09/29 03:29:59;;;;;;;8.68;3.58;;;;;;;;;;5136660;27;20015;-76
2022/09/29 03:32:45;;;;;;;8.40;3.80;;;;;;;;;;5137757;27;20441;-75
2022/09/29 03:35:30;;;;;;;7.85;3.20;;;;;;;;;;5136944;27;20050;-75
2022/09/29 03:38:16;;;;;;;4.25;3.10;;;;;;;;;;5136503;27;20030;-75
2022/09/29 03:41:02;;;;;;;7.00;3.17;;;;;;;;;;5142562;27;20033;-78
2022/09/29 03:43:48;;;;;;;13.38;3.72;;;;;;;;;;5137131;27;20027;-75
2022/09/29 03:46:33;;;;;;;9.52;3.90;;;;;;;;;;5136365;27;20011;-75
2022/09/29 03:49:19;;;;;;;5.75;3.95;;;;;;;;;;5137983;27;20027;-76
2022/09/29 03:52:04;;;;;;;12.60;5.57;;;;;;;;;;5123758;27;20044;-76
2022/09/29 03:54:50;;;;;;;8.00;4.32;;;;;;;;;;5136140;27;20441;-74
2022/09/29 03:57:35;;;;;;;14.75;4.90;;;;;;;;;;5136528;27;20460;-74
2022/09/29 04:00:21;;;;;;;6.68;4.47;;;;;;;;;;5121840;27;20070;-74
2022/09/29 04:03:07;;;;;;;8.00;4.50;;;;;;;;;;5121849;27;20015;-75
2022/09/29 04:05:53;;;;;;;6.97;4.07;;;;;;;;;;5119231;27;20038;-75
2022/09/29 04:08:38;;;;;;;6.05;3.97;;;;;;;;;;5135873;27;20104;-75
2022/09/29 04:11:24;;;;;;;5.40;3.60;;;;;;;;;;5136312;27;20463;-74
2022/09/29 04:14:09;;;;;;;8.02;4.00;;;;;;;;;;5135389;27;20417;-75
2022/09/29 04:16:55;;;;;;;7.63;3.90;;;;;;;;;;5136015;27;20029;-74
2022/09/29 04:19:40;;;;;;;6.85;4.60;;;;;;;;;;5136148;27;20023;-74
2022/09/29 04:22:26;;;;;;;7.38;4.70;;;;;;;;;;5134606;27;20087;-74
2022/09/29 04:25:11;;;;;;;6.47;4.07;;;;;;;;;;5134524;27;20020;-73
2022/09/29 04:27:57;;;;;;;9.77;4.03;;;;;;;;;;5119790;27;20386;-72
2022/09/29 04:30:43;;;;;;;6.38;3.78;;;;;;;;;;5134883;27;20030;-74
2022/09/29 04:33:28;;;;;;;10.75;4.55;;;;;;;;;;5134507;27;20178;-74
2022/09/29 04:36:14;;;;;;;7.43;4.20;;;;;;;;;;5134985;27;20067;-74
2022/09/29 04:39:00;;;;;;;10.85;4.30;;;;;;;;;;5135322;27;20416;-74
2022/09/29 04:41:45;;;;;;;10.40;5.53;;;;;;;;;;5134357;27;20020;-75
2022/09/29 04:44:31;;;;;;;11.18;5.50;;;;;;;;;;5134751;27;20016;-74
2022/09/29 04:47:16;;;;;;;11.15;6.00;;;;;;;;;;5135198;28;20042;-73
2022/09/29 04:50:02;;;;;;;13.02;6.25;;;;;;;;;;5119575;28;20084;-75
2022/09/29 04:52:48;;;;;;;11.95;6.13;;;;;;;;;;5134499;28;20029;-74
2022/09/29 04:55:35;;;;;;;8.50;5.90;;;;;;;;;;5134442;28;20054;-74
2022/09/29 04:58:21;;;;;;;13.35;6.35;;;;;;;;;;5134420;28;20087;-74
2022/09/29 05:01:08;;;;;;;11.50;6.65;;;;;;;;;;5120468;28;20069;-73
2022/09/29 05:03:53;;;;;;;9.68;5.68;;;;;;;;;;5128718;28;20073;-74
2022/09/29 05:06:39;;;;;;;8.75;5.82;;;;;;;;;;5139683;28;20043;-74
2022/09/29 05:09:24;;;;;;;11.27;6.00;;;;;;;;;;5152850;28;20011;-74
2022/09/29 05:12:10;;;;;;;15.82;5.55;;;;;;;;;;5154474;28;20027;-73
2022/09/29 05:14:55;;;;;;;12.32;4.30;;;;;;;;;;5147522;28;20019;-74
2022/09/29 05:17:41;;;;;;;8.88;4.90;;;;;;;;;;5147866;28;20041;-73
2022/09/29 05:20:26;;;;;;;14.15;5.55;;;;;;;;;;5148124;28;20048;-73
2022/09/29 05:23:12;;;;;;;7.45;5.20;;;;;;;;;;5144457;28;20054;-74
2022/09/29 05:26:05;;;;;;;12.23;6.35;;;;;;;;;;5144541;27;20063;-73
2022/09/29 05:28:50;;;;;;;14.20;5.38;;;;;;;;;;5129409;27;20018;-74
2022/09/29 05:31:36;;;;;;;11.52;5.40;;;;;;;;;;5138774;27;20011;-73
2022/09/29 05:34:22;;;;;;;12.88;6.15;;;;;;;;;;5138634;27;20019;-73
2022/09/29 05:37:07;;;;;;;13.15;5.70;;;;;;;;;;5137109;27;20019;-73
2022/09/29 05:39:53;;;;;;;14.48;6.00;;;;;;;;;;5123123;27;20403;-74
2022/09/29 05:42:39;;;;;;;16.08;5.95;;;;;;;;;;5137663;27;20031;-74
2022/09/29 05:45:25;;;;;;;10.27;5.00;;;;;;;;;;5122019;27;20436;-74
2022/09/29 05:48:11;;;;;;;32.15;18.73;;;;;;;;;;5137966;27;20034;-73
2022/09/29 05:50:57;;;;;;;9.32;5.10;;;;;;;;;;5137824;27;20023;-74
2022/09/29 05:53:43;;;;;;;9.90;4.03;;;;;;;;;;5137400;27;20051;-74
2022/09/29 05:56:28;;;;;;;6.97;3.80;;;;;;;;;;5136989;27;20068;-73
2022/09/29 05:59:14;;;;;;;14.43;4.50;;;;;;;;;;5136715;27;20097;-74
2022/09/29 06:01:59;;;;;;;9.90;4.00;;;;;;;;;;5122129;27;20035;-74
2022/09/29 06:04:45;;;;;;;12.45;4.55;;;;;;;;;;5136376;27;20047;-74
2022/09/29 06:07:31;;;;;;;16.00;4.88;;;;;;;;;;5136990;27;20023;-73
2022/09/29 06:10:16;;;;;;;15.25;4.60;;;;;;;;;;5136655;27;20106;-74
2022/09/29 06:13:02;;;;;;;15.43;4.80;;;;;;;;;;5137301;27;20448;-74
2022/09/29 06:15:48;;;;;;;20.77;5.85;;;;;;;;;;5136967;27;20038;-74
2022/09/29 06:18:34;;;;;;;19.30;5.15;;;;;;;;;;5137420;27;20475;-74
2022/09/29 06:21:23;;;;;;;16.58;5.53;;;;;;;;;;5137401;27;20352;-74
2022/09/29 06:24:09;;;;;;;15.40;4.43;;;;;;;;;;5135941;27;20087;-74
2022/09/29 06:26:55;;;;;;;20.05;5.47;;;;;;;;;;5138113;27;20019;-74
2022/09/29 06:29:40;;;;;;;20.63;5.90;;;;;;;;;;5157516;27;20023;-73
2022/09/29 06:32:26;;;;;;;19.23;6.03;;;;;;;;;;5137040;27;20019;-74
2022/09/29 06:38:15;;;;;;;15.82;5.63;;;;;;;;;;5136604;27;20080;-74
2022/09/29 06:41:01;;;;;;;11.98;4.97;;;;;;;;;;5136069;27;20027;-74
2022/09/29 06:43:46;;;;;;;21.55;5.47;;;;;;;;;;5121609;27;20102;-74
2022/09/29 06:46:32;;;;;;;9.55;4.97;;;;;;;;;;5123081;27;20048;-74
2022/09/29 06:49:18;;;;;;;11.20;4.40;;;;;;;;;;5139103;27;20110;-74
2022/09/29 06:52:04;;;;;;;13.57;4.53;;;;;;;;;;5136781;27;20019;-74
2022/09/29 06:54:49;;;;;;;11.95;4.53;;;;;;;;;;5121240;27;20118;-74
2022/09/29 06:57:36;;;;;;;10.85;4.10;;;;;;;;;;5135764;27;20023;-74
2022/09/29 07:00:21;;;;;;;9.93;3.90;;;;;;;;;;5136106;27;20341;-75
2022/09/29 07:03:07;;;;;;;16.90;3.70;;;;;;;;;;5135569;27;20019;-73
2022/09/29 07:05:52;;;;;;;10.70;3.35;;;;;;;;;;5122048;27;20429;-75
2022/09/29 07:08:39;;;;;;;6.43;3.13;;;;;;;;;;5136673;27;20039;-74
2022/09/29 07:11:25;;;;;;;4.50;3.10;;;;;;;;;;5135637;27;20102;-75
2022/09/29 07:14:11;;;;;;;5.00;3.33;;;;;;;;;;5136355;27;20367;-75
2022/09/29 07:16:58;;;;;;;8.13;4.18;;;;;;;;;;5135696;27;20097;-75
2022/09/29 07:19:44;;;;;;;7.20;4.63;;;;;;;;;;5121253;27;20026;-74
2022/09/29 07:22:29;;;;;;;8.27;4.35;;;;;;;;;;5135387;27;20368;-75
2022/09/29 07:25:15;;;;;;;7.70;3.40;;;;;;;;;;5134510;27;20110;-74
2022/09/29 07:28:01;;;;;;;8.77;6.13;;;;;;;;;;5134853;27;20051;-75
2022/09/29 07:30:56;;;;;;;10.50;4.50;;;;;;;;;;5136038;27;20019;-74
2022/09/29 07:33:42;;;;;;;26.10;12.10;;;;;;;;;;5135632;27;20060;-75
2022/09/29 07:36:28;;;;;;;9.60;3.58;;;;;;;;;;5135954;27;20325;-74
2022/09/29 07:39:13;;;;;;;15.55;3.63;;;;;;;;;;5134693;27;20033;-74
2022/09/29 07:41:59;;;;;;;6.28;3.45;;;;;;;;;;5134602;27;20026;-74
2022/09/29 07:44:45;;;;;;;8.55;3.17;;;;;;;;;;5135390;27;20075;-75
2022/09/29 07:47:30;;;;;;;8.77;3.85;;;;;;;;;;5134578;27;20011;-74
2022/09/29 07:50:16;;;;;;;9.50;3.80;;;;;;;;;;5119844;27;20026;-73
2022/09/29 07:53:01;;;;;;;6.05;3.83;;;;;;;;;;5133884;27;20022;-74
2022/09/29 07:55:47;;;;;;;8.15;3.55;;;;;;;;;;5134369;27;20098;-75
2022/09/29 07:58:33;;;;;;;9.23;3.30;;;;;;;;;;5134001;27;20034;-74
2022/09/29 08:01:18;;;;;;;10.10;3.78;;;;;;;;;;5136184;27;20026;-75
2022/09/29 08:04:05;;;;;;;9.23;3.35;;;;;;;;;;5135542;27;20344;-74
2022/09/29 08:06:50;;;;;;;28.80;16.98;;;;;;;;;;5135296;27;20023;-75
2022/09/29 08:09:36;;;;;;;10.30;5.68;;;;;;;;;;5135950;27;20460;-75
2022/09/29 08:12:22;;;;;;;7.80;3.60;;;;;;;;;;5119965;27;20020;-75
2022/09/29 08:15:08;;;;;;;5.22;3.50;;;;;;;;;;5134929;27;20122;-74
2022/09/29 08:17:54;;;;;;;3.55;2.90;;;;;;;;;;5109373;27;20027;-74
2022/09/29 08:20:39;;;;;;;4.63;3.20;;;;;;;;;;5135293;27;20049;-74
2022/09/29 08:23:25;;;;;;;6.10;3.33;;;;;;;;;;5134403;27;20532;-75
2022/09/29 08:26:15;;;;;;;6.65;3.40;;;;;;;;;;5119430;27;20026;-74
2022/09/29 08:29:02;;;;;;;15.98;3.80;;;;;;;;;;5134422;27;20016;-74
2022/09/29 08:31:47;;;;;;;8.60;3.20;;;;;;;;;;5119289;27;20046;-75
2022/09/29 08:34:33;;;;;;;9.85;3.00;;;;;;;;;;5134340;27;20019;-74
2022/09/29 08:37:19;;;;;;;4.63;3.10;;;;;;;;;;5134204;27;20393;-76
2022/09/29 08:40:05;;;;;;;6.68;3.30;;;;;;;;;;5120859;27;20432;-73
2022/09/29 08:42:51;;;;;;;10.90;3.70;;;;;;;;;;5135001;27;20069;-74
2022/09/29 08:45:39;;;;;;;10.57;3.70;;;;;;;;;;5134370;27;20019;-74
2022/09/29 08:48:26;;;;;;;8.57;3.47;;;;;;;;;;5134002;28;20019;-74
2022/09/29 08:51:24;;;;;;;5.57;3.33;;;;;;;;;;5133842;28;20162;-75
2022/09/29 08:54:15;;;;;;;6.72;4.25;;;;;;;;;;5127603;28;20078;-74
2022/09/29 08:57:01;;;;;;;9.95;3.97;;;;;;;;;;5127581;28;20042;-74
2022/09/29 08:59:53;;;;;;;7.75;3.97;;;;;;;;;;5134305;27;20027;-74
2022/09/29 09:02:45;;;;;;;5.72;3.42;;;;;;;;;;5138803;27;20023;-74
2022/09/29 09:05:31;;;;;;;7.60;3.22;;;;;;;;;;5138319;27;20119;-75
2022/09/29 09:08:16;;;;;;;6.95;2.85;;;;;;;;;;5138430;27;20023;-75
2022/09/29 09:11:07;;;;;;;8.50;3.08;;;;;;;;;;5138127;27;20037;-75
2022/09/29 09:14:06;;;;;;;6.50;3.30;;;;;;;;;;5138524;27;20038;-75
2022/09/29 09:16:54;;;;;;;4.55;3.20;;;;;;;;;;5139395;27;20015;-75
2022/09/29 09:19:58;;;;;;;18.23;4.40;;;;;;;;;;5138068;27;20031;-74
2022/09/29 09:22:44;;;;;;;8.45;3.40;;;;;;;;;;5137402;27;20455;-74
2022/09/29 09:25:35;;;;;;;6.25;3.40;;;;;;;;;;5137171;27;20023;-74
2022/09/29 09:28:31;;;;;;;8.05;3.47;;;;;;;;;;5138493;27;20046;-74
2022/09/29 09:31:39;;;;;;;7.03;3.50;;;;;;;;;;5138576;27;20102;-74
2022/09/29 09:34:33;;;;;;;6.72;3.47;;;;;;;;;;5138172;27;20022;-75
2022/09/29 09:37:21;;;;;;;6.35;3.35;;;;;;;;;;5122772;27;20038;-74
2022/09/29 09:40:10;;;;;;;6.35;3.50;;;;;;;;;;5138282;27;20023;-75
2022/09/29 09:43:02;;;;;;;8.82;3.95;;;;;;;;;;5137383;27;20023;-75
2022/09/29 09:45:51;;;;;;;6.03;3.67;;;;;;;;;;5137859;27;20034;-75
2022/09/29 09:48:52;;;;;;;9.25;3.40;;;;;;;;;;5137860;27;20095;-74
2022/09/29 09:51:44;;;;;;;5.25;3.05;;;;;;;;;;5121976;27;20023;-75
2022/09/29 09:54:34;;;;;;;5.55;3.03;;;;;;;;;;5136806;27;20058;-75
2022/09/29 09:57:31;;;;;;;6.55;3.20;;;;;;;;;;5122072;27;20031;-75
2022/09/29 10:00:20;;;;;;;5.55;3.15;;;;;;;;;;5137199;27;20034;-73
2022/09/29 10:03:07;;;;;;;8.05;3.10;;;;;;;;;;5137258;27;20068;-75
2022/09/29 10:05:53;;;;;;;6.35;2.90;;;;;;;;;;5137893;27;20023;-75
2022/09/29 10:08:40;;;;;;;15.70;3.53;;;;;;;;;;5139501;27;20072;-75
2022/09/29 10:11:29;;;;;;;12.90;3.53;;;;;;;;;;5137045;27;20098;-75
2022/09/29 10:14:20;;;;;;;8.20;3.00;;;;;;;;;;5137375;27;20027;-74
2022/09/29 10:17:09;;;;;;;8.15;3.15;;;;;;;;;;5137411;27;20414;-75
2022/09/29 10:19:54;;;;;;;7.25;3.03;;;;;;;;;;5136111;27;20027;-75
2022/09/29 10:22:40;;;;;;;3.50;2.70;;;;;;;;;;5137635;27;20443;-74
2022/09/29 10:25:26;;;;;;;4.78;2.70;;;;;;;;;;5137005;27;20361;-75
2022/09/29 10:28:12;;;;;;;5.47;3.30;;;;;;;;;;5135843;27;20030;-75
2022/09/29 10:30:58;;;;;;;7.82;4.00;;;;;;;;;;5137164;27;20026;-75
2022/09/29 10:33:57;;;;;;;4.60;3.03;;;;;;;;;;5121591;27;20433;-75
2022/09/29 10:36:51;;;;;;;5.95;3.10;;;;;;;;;;5141658;27;20019;-74
2022/09/29 10:39:36;;;;;;;8.30;3.20;;;;;;;;;;5140203;27;20030;-75
2022/09/29 10:42:24;;;;;;;8.35;3.22;;;;;;;;;;5137118;27;20023;-75
2022/09/29 10:45:12;;;;;;;10.88;3.53;;;;;;;;;;5137062;27;20356;-75
2022/09/29 10:47:59;;;;;;;8.85;3.40;;;;;;;;;;5138048;27;20402;-74
2022/09/29 10:50:49;;;;;;;10.07;3.40;;;;;;;;;;5120374;27;20050;-75
2022/09/29 10:53:35;;;;;;;6.72;4.60;;;;;;;;;;5131153;27;20040;-75
2022/09/29 10:56:23;;;;;;;6.72;3.65;;;;;;;;;;5116414;28;20012;-74
2022/09/29 10:59:09;;;;;;;10.85;3.42;;;;;;;;;;5115849;28;20011;-75
2022/09/29 11:01:58;;;;;;;7.13;2.83;;;;;;;;;;5115668;28;20016;-75
2022/09/29 11:04:44;;;;;;;9.32;2.53;;;;;;;;;;5115969;28;20084;-75
2022/09/29 11:07:30;;;;;;;6.82;3.25;;;;;;;;;;5116216;28;20023;-75
2022/09/29 11:10:34;;;;;;;8.40;2.97;;;;;;;;;;5121800;28;20023;-74
2022/09/29 11:13:23;;;;;;;9.52;2.83;;;;;;;;;;5118905;28;20148;-72
2022/09/29 11:16:14;;;;;;;11.27;3.15;;;;;;;;;;5115898;28;20023;-73
2022/09/29 11:19:10;;;;;;;10.80;2.95;;;;;;;;;;5116248;28;20027;-73
2022/09/29 11:21:55;;;;;;;5.60;3.00;;;;;;;;;;5101047;28;20031;-72
2022/09/29 11:24:56;;;;;;;10.75;6.72;;;;;;;;;;5114264;28;20088;-73
2022/09/29 11:27:54;;;;;;;5.85;3.83;;;;;;;;;;5100888;28;20027;-74
2022/09/29 11:31:08;;;;;;;5.07;2.60;;;;;;;;;;5115723;28;20420;-73
2022/09/29 11:33:59;;;;;;;5.10;2.70;;;;;;;;;;5115342;28;20430;-74
2022/09/29 11:36:53;;;;;;;6.35;4.15;;;;;;;;;;5115307;28;20433;-72
2022/09/29 11:39:38;;;;;;;6.60;2.53;;;;;;;;;;5115310;28;20334;-73
2022/09/29 11:42:27;;;;;;;7.10;3.15;;;;;;;;;;5115137;28;20012;-73
2022/09/29 11:45:17;;;;;;;4.15;2.95;;;;;;;;;;5114732;28;20055;-72
2022/09/29 11:48:21;;;;;;;6.53;3.05;;;;;;;;;;5115490;28;20095;-73
2022/09/29 11:51:07;;;;;;;6.45;3.05;;;;;;;;;;5115163;28;20084;-73
2022/09/29 11:54:13;;;;;;;23.65;4.10;;;;;;;;;;5122247;27;20047;-74
2022/09/29 11:57:10;;;;;;;12.73;3.33;;;;;;;;;;5098343;27;20102;-74
2022/09/29 11:59:59;;;;;;;6.40;2.60;;;;;;;;;;5134739;27;20011;-73
2022/09/29 12:02:48;;;;;;;5.20;2.40;;;;;;;;;;5119618;27;20019;-71
2022/09/29 12:05:34;;;;;;;5.80;2.78;;;;;;;;;;5118712;27;20023;-73
2022/09/29 12:08:19;;;;;;;5.55;3.03;;;;;;;;;;5119085;27;20042;-74
2022/09/29 12:11:26;;;;;;;9.85;3.97;;;;;;;;;;5134748;27;20023;-73
2022/09/29 12:14:15;;;;;;;5.53;3.72;;;;;;;;;;5134245;27;20029;-74
2022/09/29 12:17:05;;;;;;;8.88;4.32;;;;;;;;;;5120340;27;20027;-73
2022/09/29 12:19:54;;;;;;;13.73;5.47;;;;;;;;;;5126270;27;20066;-74
2022/09/29 12:22:42;;;;;;;12.10;5.72;;;;;;;;;;5135169;27;20019;-73
2022/09/29 12:25:29;;;;;;;7.93;3.88;;;;;;;;;;5119880;27;20070;-73
2022/09/29 12:28:17;;;;;;;12.02;3.63;;;;;;;;;;5134058;27;20042;-73
2022/09/29 12:31:15;;;;;;;8.23;3.55;;;;;;;;;;5119496;27;20370;-70
2022/09/29 12:34:13;;;;;;;9.75;3.60;;;;;;;;;;5133687;27;20072;-73
2022/09/29 12:37:02;;;;;;;7.85;3.60;;;;;;;;;;5134292;27;20019;-71
2022/09/29 12:39:59;;;;;;;10.07;3.35;;;;;;;;;;5119073;27;20030;-73
2022/09/29 12:42:59;;;;;;;11.27;3.92;;;;;;;;;;5134581;27;20030;-70
2022/09/29 12:45:54;;;;;;;10.95;3.75;;;;;;;;;;5133743;27;20444;-71
2022/09/29 12:49:00;;;;;;;8.18;3.90;;;;;;;;;;5134028;27;20071;-71
2022/09/29 12:51:46;;;;;;;8.40;4.13;;;;;;;;;;5131055;28;20027;-70
2022/09/29 12:54:39;;;;;;;9.80;3.45;;;;;;;;;;5133784;28;20035;-72
2022/09/29 12:57:29;;;;;;;9.43;4.13;;;;;;;;;;5133907;28;20109;-72
2022/09/29 13:00:17;;;;;;;5.47;3.20;;;;;;;;;;5134018;28;20019;-71
2022/09/29 13:03:20;;;;;;;5.78;2.65;;;;;;;;;;5118468;28;20023;-71
2022/09/29 13:06:21;;;;;;;7.53;3.05;;;;;;;;;;5134272;28;20433;-72
2022/09/29 13:09:10;;;;;;;10.15;3.20;;;;;;;;;;5119573;28;20091;-72
2022/09/29 13:12:02;;;;;;;5.28;2.97;;;;;;;;;;5118673;28;20079;-72
2022/09/29 13:14:59;;;;;;;6.72;3.40;;;;;;;;;;5119636;28;20023;-74
2022/09/29 13:17:48;;;;;;;5.90;2.85;;;;;;;;;;5119348;28;20023;-73
2022/09/29 13:20:33;;;;;;;9.85;2.92;;;;;;;;;;5119202;28;20337;-72
2022/09/29 13:23:44;;;;;;;9.65;3.42;;;;;;;;;;5133518;28;20027;-71
2022/09/29 13:26:34;;;;;;;9.88;4.60;;;;;;;;;;5119293;28;20019;-74
2022/09/29 13:29:25;;;;;;;5.03;2.78;;;;;;;;;;5119231;28;20070;-73
2022/09/29 13:32:11;;;;;;;11.77;3.35;;;;;;;;;;5118121;28;20456;-74
2022/09/29 13:34:58;;;;;;;5.50;2.67;;;;;;;;;;5088568;28;20034;-73
2022/09/29 13:37:49;;;;;;;5.18;3.10;;;;;;;;;;5118488;28;20027;-74
2022/09/29 13:40:35;;;;;;;13.02;3.38;;;;;;;;;;5133565;28;20019;-74
2022/09/29 13:43:56;;;;;;;4.05;2.50;;;;;;;;;;5133736;28;20088;-74
2022/09/29 13:46:42;;;;;;;8.82;3.10;;;;;;;;;;5134130;27;20016;-74
2022/09/29 13:49:29;;;;;;;6.50;2.75;;;;;;;;;;5122788;27;20376;-75
2022/09/29 13:52:17;;;;;;;5.40;3.13;;;;;;;;;;5138102;27;20031;-73
2022/09/29 13:55:21;;;;;;;6.18;2.70;;;;;;;;;;5121992;27;20039;-74
2022/09/29 13:58:19;;;;;;;5.72;2.28;;;;;;;;;;5136861;27;20520;-74
2022/09/29 14:01:06;;;;;;;8.15;2.78;;;;;;;;;;5137112;27;20015;-74
2022/09/29 14:03:54;;;;;;;7.93;3.00;;;;;;;;;;5137185;27;20058;-75
2022/09/29 14:06:46;;;;;;;10.70;3.10;;;;;;;;;;5137468;27;20084;-74
2022/09/29 14:09:34;;;;;;;26.92;4.82;;;;;;;;;;5136533;27;20019;-73
2022/09/29 14:12:23;;;;;;;11.95;3.35;;;;;;;;;;5137007;27;20330;-74
2022/09/29 14:15:12;;;;;;;8.70;2.88;;;;;;;;;;5136541;27;20054;-74
2022/09/29 14:18:02;;;;;;;6.43;3.15;;;;;;;;;;5137720;27;20376;-73
2022/09/29 14:21:02;;;;;;;8.18;2.70;;;;;;;;;;5136895;27;20056;-74
2022/09/29 14:23:50;;;;;;;8.88;2.47;;;;;;;;;;5120870;27;20023;-73
2022/09/29 14:26:42;;;;;;;5.00;2.58;;;;;;;;;;5136431;27;20015;-74
2022/09/29 14:29:31;;;;;;;4.70;2.50;;;;;;;;;;5136990;27;20034;-73
2022/09/29 14:32:18;;;;;;;5.28;2.47;;;;;;;;;;5137218;27;20022;-74
2022/09/29 14:35:09;;;;;;;4.03;2.78;;;;;;;;;;5143175;27;20364;-74
2022/09/29 14:38:09;;;;;;;6.60;2.50;;;;;;;;;;5136895;27;20015;-71
2022/09/29 14:40:56;;;;;;;7.10;2.50;;;;;;;;;;5136523;27;20038;-73
2022/09/29 14:43:43;;;;;;;4.70;2.70;;;;;;;;;;5136479;27;20102;-74
2022/09/29 14:52:56;;;;;;;8.02;3.08;;;;;;;;;;5136564;27;20080;-73
2022/09/29 14:55:44;;;;;;;6.18;2.80;;;;;;;;;;5121400;27;20353;-74
2022/09/29 14:58:59;;;;;;;4.05;2.80;;;;;;;;;;5136096;27;20019;-75
2022/09/29 15:02:05;;;;;;;4.05;2.60;;;;;;;;;;5125113;27;20023;-74
2022/09/29 15:04:51;;;;;;;8.40;2.60;;;;;;;;;;5137074;27;20034;-73
2022/09/29 15:07:40;;;;;;;7.40;2.95;;;;;;;;;;5135802;27;20111;-74
2022/09/29 15:10:25;;;;;;;9.20;3.67;;;;;;;;;;5122203;27;20019;-75
2022/09/29 15:13:18;;;;;;;23.75;14.20;;;;;;;;;;5120653;27;20015;-76
2022/09/29 15:16:13;;;;;;;17.20;5.78;;;;;;;;;;5135816;27;20416;-76
2022/09/29 15:22:37;;;;;;;8.18;3.53;;;;;;;;;;5136527;27;20015;-75
2022/09/29 15:25:29;;;;;;;8.48;3.03;;;;;;;;;;5120677;27;20023;-75
2022/09/29 15:28:24;;;;;;;7.50;3.00;;;;;;;;;;5135533;27;20011;-75
2022/09/29 15:31:15;;;;;;;8.55;2.60;;;;;;;;;;5134869;27;20030;-75
2022/09/29 15:37:23;;;;;;;7.68;3.45;;;;;;;;;;5135616;27;20453;-75
2022/09/29 15:40:14;;;;;;;15.02;4.15;;;;;;;;;;5119986;27;20023;-75
2022/09/29 15:43:00;;;;;;;12.55;3.30;;;;;;;;;;5135835;27;20019;-75
2022/09/29 15:45:51;;;;;;;17.80;3.10;;;;;;;;;;5120439;27;20015;-76
2022/09/29 15:48:37;;;;;;;18.25;3.08;;;;;;;;;;5134976;27;20415;-75
2022/09/29 15:51:22;;;;;;;7.70;2.85;;;;;;;;;;5134862;27;20023;-76
2022/09/29 15:57:57;;;;;;;10.85;3.67;;;;;;;;;;5135534;27;20015;-75
2022/09/29 16:00:43;;;;;;;7.18;3.53;;;;;;;;;;5119822;27;20046;-75
2022/09/29 16:03:39;;;;;;;7.93;3.00;;;;;;;;;;5120363;27;20058;-75
2022/09/29 16:06:30;;;;;;;12.85;3.50;;;;;;;;;;5135322;27;20023;-74
2022/09/29 16:09:18;;;;;;;11.68;3.75;;;;;;;;;;5120133;27;20030;-76
2022/09/29 16:12:06;;;;;;;7.45;3.00;;;;;;;;;;5134710;27;20018;-77
2022/09/29 16:14:56;;;;;;;6.13;2.72;;;;;;;;;;5126502;27;20109;-77
2022/09/29 16:17:42;;;;;;;6.78;2.90;;;;;;;;;;5134777;27;20448;-75
2022/09/29 16:20:28;;;;;;;8.02;2.90;;;;;;;;;;5135233;27;20042;-74
2022/09/29 16:23:20;;;;;;;9.32;3.13;;;;;;;;;;5134497;27;20132;-74
2022/09/29 16:26:05;;;;;;;7.78;2.67;;;;;;;;;;5134989;27;20473;-76
2022/09/29 16:29:20;;;;;;;4.30;2.30;;;;;;;;;;5134459;27;20357;-75
2022/09/29 16:32:44;;;;;;;6.85;2.78;;;;;;;;;;5127405;27;20118;-76
2022/09/29 16:35:39;;;;;;;7.28;2.60;;;;;;;;;;5018707;28;20137;-76
2022/09/29 16:38:33;;;;;;;7.35;2.80;;;;;;;;;;5033234;28;20025;-75
2022/09/29 16:41:34;;;;;;;7.68;3.10;;;;;;;;;;5108741;28;20032;-76
2022/09/29 16:44:23;;;;;;;13.40;3.10;;;;;;;;;;5129427;27;20046;-78
2022/09/29 16:47:08;;;;;;;11.80;3.90;;;;;;;;;;5134627;27;20023;-76
2022/09/29 16:49:55;;;;;;;10.43;4.80;;;;;;;;;;5134482;27;20019;-77
2022/09/29 16:52:45;;;;;;;14.00;4.45;;;;;;;;;;5133908;28;20023;-76
2022/09/29 16:55:32;;;;;;;11.48;5.75;;;;;;;;;;5121459;28;20099;-74
2022/09/29 16:58:17;;;;;;;9.77;3.13;;;;;;;;;;5135153;28;20447;-76
2022/09/29 17:01:03;;;;;;;11.65;3.65;;;;;;;;;;5133847;28;20044;-75
2022/09/29 17:03:49;;;;;;;8.73;5.00;;;;;;;;;;5120179;28;20452;-75
2022/09/29 17:06:34;;;;;;;13.02;6.28;;;;;;;;;;5119645;28;20034;-75
2022/09/29 17:09:22;;;;;;;13.88;5.30;;;;;;;;;;5133907;28;20055;-75